Time;durP1;ratioP1;P1;durP2;ratioP2;P2;SDS_P1;SDS_P2;PMS_P1;PMS_P2;Temp;Humidity;BMP_temperature;BMP_pressure;BME280_temperature;BME280_humidity;BME280_pressure;Samples;Min_cycle;Max_cycle;Signal;HPM_P1;HPM_P2
2022/09/13 00:01:05;;;;;;;;;;;;;;;14.18;62.45;95867.09;10380582;28;96717;-58
2022/09/13 00:06:10;;;;;;;;;;;;;;;14.12;62.04;95863.41;10380491;28;96781;-58
2022/09/13 00:11:17;;;;;;;;;;;;;;;14.15;62.18;95854.31;10379629;28;97594;-58
2022/09/13 00:16:21;;;;;;;;;;;;;;;14.18;62.36;95862.66;10380442;28;96868;-58
2022/09/13 00:21:26;;;;;;;;;;;;;;;14.08;62.65;95856.84;10379873;28;96719;-58
2022/09/13 00:26:29;;;;;;;;;;;;;;;13.98;62.88;95851.88;10356382;28;96790;-58
2022/09/13 00:31:31;;;;;;;;;;;;;;;13.99;62.59;95858.75;10339255;28;96979;-58
2022/09/13 00:36:35;;;;;;;;;;;;;;;14.07;62.80;95854.41;10338457;28;96730;-57
2022/09/13 00:41:38;;;;;;;;;;;;;;;14.09;62.78;95847.97;10337390;28;96720;-57
2022/09/13 00:46:44;;;;;;;;;;;;;;;14.14;62.45;95839.53;10337135;28;96865;-58
2022/09/13 00:51:49;;;;;;;;;;;;;;;14.11;63.11;95839.94;10375226;28;96819;-58
2022/09/13 00:56:54;;;;;;;;;;;;;;;14.11;63.05;95834.69;10377882;28;98556;-58
2022/09/13 01:01:57;;;;;;;;;;;;;;;14.09;63.19;95836.66;10379057;28;96875;-58
2022/09/13 01:07:03;;;;;;;;;;;;;;;14.05;63.22;95830.13;10378370;28;96600;-58
2022/09/13 01:12:09;;;;;;;;;;;;;;;14.10;63.48;95833.84;10377848;28;96985;-59
2022/09/13 01:17:11;;;;;;;;;;;;;;;14.12;62.92;95831.03;10377856;28;97453;-58
2022/09/13 01:22:34;;;;;;;;;;;;;;;14.02;63.71;95819.97;10378733;28;96805;-58
2022/09/13 01:27:51;;;;;;;;;;;;;;;13.84;63.53;95812.44;10375673;28;96909;-58
2022/09/13 01:33:01;;;;;;;;;;;;;;;13.70;64.21;95808.78;10377646;28;96849;-58
2022/09/13 01:38:11;;;;;;;;;;;;;;;13.74;64.56;95810.06;10376291;28;96732;-58
2022/09/13 01:43:22;;;;;;;;;;;;;;;13.72;63.92;95810.22;10377463;28;96752;-58
2022/09/13 01:48:33;;;;;;;;;;;;;;;13.73;64.42;95816.31;10377590;28;96896;-58
2022/09/13 01:53:40;;;;;;;;;;;;;;;13.59;63.93;95804.78;10375719;28;96763;-58
2022/09/13 01:58:45;;;;;;;;;;;;;;;13.55;64.82;95808.75;10335919;28;96802;-58
2022/09/13 02:03:52;;;;;;;;;;;;;;;13.58;64.68;95792.66;10335585;28;97221;-58
2022/09/13 02:08:56;;;;;;;;;;;;;;;13.61;64.44;95790.47;10342120;28;96840;-58
2022/09/13 02:14:04;;;;;;;;;;;;;;;13.60;64.49;95782.78;10376968;28;96757;-58
2022/09/13 02:19:12;;;;;;;;;;;;;;;13.64;64.06;95786.69;10375897;28;96889;-58
2022/09/13 02:24:16;;;;;;;;;;;;;;;13.35;64.37;95782.19;10367142;28;96673;-58
2022/09/13 02:29:21;;;;;;;;;;;;;;;13.11;65.26;95791.03;10333396;28;96778;-58
2022/09/13 02:34:27;;;;;;;;;;;;;;;13.00;66.09;95785.22;10334232;28;96638;-58
2022/09/13 02:39:31;;;;;;;;;;;;;;;13.05;66.58;95780.25;10334441;28;98028;-58
2022/09/13 02:44:36;;;;;;;;;;;;;;;13.17;66.14;95779.84;10334110;28;96678;-58
2022/09/13 02:49:46;;;;;;;;;;;;;;;13.29;65.85;95788.13;10359792;28;96717;-57
2022/09/13 02:54:51;;;;;;;;;;;;;;;13.38;65.48;95780.03;10402752;28;97006;-58
2022/09/13 02:59:54;;;;;;;;;;;;;;;13.31;65.42;95786.97;10375008;28;97735;-58
2022/09/13 03:04:58;;;;;;;;;;;;;;;13.24;65.53;95792.09;10375435;28;96784;-58
2022/09/13 03:10:05;;;;;;;;;;;;;;;13.22;65.66;95788.84;10374332;28;96742;-57
2022/09/13 03:15:14;;;;;;;;;;;;;;;13.30;65.62;95787.94;10374205;28;96824;-58
2022/09/13 03:20:21;;;;;;;;;;;;;;;13.21;65.38;95787.19;10373150;28;96921;-58
2022/09/13 03:25:30;;;;;;;;;;;;;;;13.17;66.50;95800.81;10366618;28;96865;-58
2022/09/13 03:30:35;;;;;;;;;;;;;;;13.15;66.76;95801.03;10346131;28;96751;-58
2022/09/13 03:35:42;;;;;;;;;;;;;;;13.20;66.59;95798.69;10346164;28;96768;-58
2022/09/13 03:40:48;;;;;;;;;;;;;;;13.26;66.45;95770.13;10346442;28;96687;-59
2022/09/13 03:45:53;;;;;;;;;;;;;;;13.28;66.52;95768.16;10346208;28;96785;-58
2022/09/13 03:50:57;;;;;;;;;;;;;;;13.31;65.75;95786.13;10345511;28;96806;-58
2022/09/13 03:55:59;;;;;;;;;;;;;;;13.29;66.70;95788.13;10381232;28;96685;-58
2022/09/13 04:01:02;;;;;;;;;;;;;;;13.35;65.90;95766.44;10386884;28;96918;-58
2022/09/13 04:06:06;;;;;;;;;;;;;;;13.46;66.18;95758.13;10386953;28;96690;-58
2022/09/13 04:11:09;;;;;;;;;;;;;;;13.43;66.58;95761.13;10376717;28;98651;-58
2022/09/13 04:16:11;;;;;;;;;;;;;;;13.50;66.14;95763.84;10386361;28;97139;-58
2022/09/13 04:21:16;;;;;;;;;;;;;;;13.61;65.98;95768.69;10386658;28;96702;-58
2022/09/13 04:26:19;;;;;;;;;;;;;;;13.70;65.73;95761.53;10385226;28;96768;-58
2022/09/13 04:31:21;;;;;;;;;;;;;;;13.49;66.88;95768.28;10386412;28;96775;-58
2022/09/13 04:36:25;;;;;;;;;;;;;;;13.35;66.78;95763.81;10386157;28;97151;-58
2022/09/13 04:41:28;;;;;;;;;;;;;;;13.39;67.08;95759.84;10378892;28;97519;-58
2022/09/13 04:46:31;;;;;;;;;;;;;;;13.44;67.00;95760.13;10379986;28;96722;-58
2022/09/13 04:51:34;;;;;;;;;;;;;;;13.48;66.63;95761.41;10379100;28;96752;-58
2022/09/13 04:56:37;;;;;;;;;;;;;;;13.52;66.65;95760.06;10346856;28;96949;-57
2022/09/13 05:01:40;;;;;;;;;;;;;;;13.29;67.11;95751.41;10336254;28;96832;-59
2022/09/13 05:06:44;;;;;;;;;;;;;;;13.10;68.28;95752.69;10337121;28;96752;-58
2022/09/13 05:11:46;;;;;;;;;;;;;;;13.15;68.88;95756.44;10367070;28;96950;-58
2022/09/13 05:16:49;;;;;;;;;;;;;;;13.37;68.25;95743.47;10378035;28;97703;-58
2022/09/13 05:21:53;;;;;;;;;;;;;;;13.60;67.79;95744.25;10378402;28;96837;-58
2022/09/13 05:26:55;;;;;;;;;;;;;;;13.68;67.31;95742.53;10343371;28;96961;-58
2022/09/13 05:31:58;;;;;;;;;;;;;;;13.59;68.36;95734.75;10367444;28;96753;-58
2022/09/13 05:37:02;;;;;;;;;;;;;;;13.57;68.39;95726.22;10420069;28;96840;-57
2022/09/13 05:42:05;;;;;;;;;;;;;;;13.73;68.57;95717.38;10418944;28;97866;-57
2022/09/13 05:47:07;;;;;;;;;;;;;;;13.94;68.14;95723.72;10373199;28;96729;-58
2022/09/13 05:52:11;;;;;;;;;;;;;;;14.22;67.12;95725.69;10375788;28;96840;-58
2022/09/13 05:57:14;;;;;;;;;;;;;;;14.48;66.66;95748.88;10376208;28;96907;-58
2022/09/13 06:02:16;;;;;;;;;;;;;;;14.55;67.40;95747.16;10418393;28;96670;-58
2022/09/13 06:07:20;;;;;;;;;;;;;;;14.65;67.37;95757.38;10410031;28;96772;-57
2022/09/13 06:12:23;;;;;;;;;;;;;;;14.89;67.28;95753.59;10375821;28;97419;-58
2022/09/13 06:17:25;;;;;;;;;;;;;;;15.08;66.39;95734.56;10376303;28;96726;-58
2022/09/13 06:22:32;;;;;;;;;;;;;;;15.21;65.94;95730.44;10375968;28;96952;-58
2022/09/13 06:27:34;;;;;;;;;;;;;;;15.28;66.51;95736.56;10376986;28;98251;-58
2022/09/13 06:32:37;;;;;;;;;;;;;;;15.40;66.51;95745.56;10384849;28;96897;-58
2022/09/13 06:37:41;;;;;;;;;;;;;;;15.49;66.47;95770.75;10417446;28;96773;-58
2022/09/13 06:42:43;;;;;;;;;;;;;;;15.64;65.99;95762.78;10404946;28;97273;-58
2022/09/13 06:47:46;;;;;;;;;;;;;;;15.86;65.64;95760.94;10375683;28;96683;-58
2022/09/13 06:52:50;;;;;;;;;;;;;;;16.00;65.68;95756.56;10374185;28;96926;-58
2022/09/13 06:57:53;;;;;;;;;;;;;;;16.07;65.79;95738.16;10374406;28;97266;-58
2022/09/13 07:02:55;;;;;;;;;;;;;;;16.14;65.67;95743.47;10373684;28;96989;-58
2022/09/13 07:07:59;;;;;;;;;;;;;;;16.21;65.63;95746.97;10379463;28;96807;-58
2022/09/13 07:13:02;;;;;;;;;;;;;;;16.32;65.35;95748.22;10392442;28;96784;-58
2022/09/13 07:18:06;;;;;;;;;;;;;;;16.35;65.50;95732.03;10399184;28;97214;-58
2022/09/13 07:23:10;;;;;;;;;;;;;;;16.39;65.34;95749.06;10388921;28;96771;-58
2022/09/13 07:28:16;;;;;;;;;;;;;;;16.50;64.92;95737.97;10407086;27;96784;-58
2022/09/13 07:33:23;;;;;;;;;;;;;;;16.60;64.79;95746.28;10399238;28;97072;-58
2022/09/13 07:38:27;;;;;;;;;;;;;;;16.72;65.13;95732.56;10396894;28;97258;-58
2022/09/13 07:43:30;;;;;;;;;;;;;;;16.79;64.60;95739.50;10385965;28;96829;-58
2022/09/13 07:48:33;;;;;;;;;;;;;;;16.92;64.91;95733.44;10373378;28;96771;-58
2022/09/13 07:53:38;;;;;;;;;;;;;;;17.06;64.63;95729.00;10372407;28;96763;-58
2022/09/13 07:58:42;;;;;;;;;;;;;;;17.26;64.29;95734.28;10381452;28;96837;-58
2022/09/13 08:03:45;;;;;;;;;;;;;;;17.50;63.91;95735.53;10414973;27;98479;-59
2022/09/13 08:08:49;;;;;;;;;;;;;;;17.73;63.53;95735.13;10409258;28;96821;-59
2022/09/13 08:13:52;;;;;;;;;;;;;;;17.99;63.00;95728.19;10384232;28;96935;-58
2022/09/13 08:18:55;;;;;;;;;;;;;;;18.11;62.83;95737.09;10393630;27;96794;-57
2022/09/13 08:23:59;;;;;;;;;;;;;;;18.18;63.44;95731.00;10377885;28;96854;-58
2022/09/13 08:29:03;;;;;;;;;;;;;;;18.22;63.64;95740.13;10380181;28;96722;-58
2022/09/13 08:34:07;;;;;;;;;;;;;;;18.32;63.05;95743.16;10380587;28;97245;-58
2022/09/13 08:39:12;;;;;;;;;;;;;;;18.49;62.81;95754.88;10379412;28;96791;-58
2022/09/13 08:44:22;;;;;;;;;;;;;;;18.64;62.49;95740.59;10378506;28;96798;-58
2022/09/13 08:49:28;;;;;;;;;;;;;;;18.75;61.91;95742.56;10379403;28;96866;-58
2022/09/13 08:54:32;;;;;;;;;;;;;;;18.92;62.25;95728.91;10378771;28;96862;-58
2022/09/13 08:59:45;;;;;;;;;;;;;;;19.10;62.19;95734.25;10379982;28;97021;-58
2022/09/13 09:04:50;;;;;;;;;;;;;;;19.32;62.04;95736.59;10378770;28;97252;-58
2022/09/13 09:09:56;;;;;;;;;;;;;;;19.51;61.96;95746.22;10378257;28;96891;-58
2022/09/13 09:15:02;;;;;;;;;;;;;;;19.67;61.22;95738.75;10342546;28;96706;-58
2022/09/13 09:20:09;;;;;;;;;;;;;;;19.82;61.01;95736.59;10342908;28;97045;-59
2022/09/13 09:25:15;;;;;;;;;;;;;;;19.92;61.04;95736.09;10376999;28;96753;-58
2022/09/13 09:30:17;;;;;;;;;;;;;;;20.06;61.05;95726.16;10377797;28;96911;-58
2022/09/13 09:35:28;;;;;;;;;;;;;;;20.22;60.36;95724.78;10377520;28;96922;-59
2022/09/13 09:40:33;;;;;;;;;;;;;;;20.38;60.75;95711.72;10377684;28;97049;-58
2022/09/13 09:45:40;;;;;;;;;;;;;;;20.61;60.55;95712.88;10338271;28;97067;-58
2022/09/13 09:50:45;;;;;;;;;;;;;;;20.85;59.95;95718.34;10336210;28;96801;-59
2022/09/13 09:55:52;;;;;;;;;;;;;;;21.10;59.63;95713.69;10335648;28;96725;-59
2022/09/13 10:00:55;;;;;;;;;;;;;;;21.45;59.07;95706.81;10335771;28;96791;-59
2022/09/13 10:06:04;;;;;;;;;;;;;;;21.81;59.02;95703.16;10333474;28;97093;-58
2022/09/13 10:11:09;;;;;;;;;;;;;;;21.95;58.94;95689.63;10358487;28;96779;-58
2022/09/13 10:16:23;;;;;;;;;;;;;;;22.05;58.87;95695.97;10335021;28;98146;-58
2022/09/13 10:21:27;;;;;;;;;;;;;;;22.30;58.25;95681.63;10334808;28;97189;-58
2022/09/13 10:26:33;;;;;;;;;;;;;;;22.49;57.99;95676.97;10334896;28;96962;-59
2022/09/13 10:31:37;;;;;;;;;;;;;;;22.80;57.44;95678.34;10334722;28;96799;-58
2022/09/13 10:36:43;;;;;;;;;;;;;;;23.02;57.55;95684.84;10333445;28;96697;-59
2022/09/13 10:41:58;;;;;;;;;;;;;;;23.29;56.94;95687.72;10342938;28;96755;-58
2022/09/13 10:47:03;;;;;;;;;;;;;;;23.48;56.95;95674.94;10375238;28;96977;-58
2022/09/13 10:52:23;;;;;;;;;;;;;;;23.62;56.57;95676.25;10375462;28;97142;-58
2022/09/13 10:57:33;;;;;;;;;;;;;;;23.88;56.03;95664.09;10374318;28;97165;-59
2022/09/13 11:02:46;;;;;;;;;;;;;;;23.98;56.24;95666.06;10374668;28;96771;-58
2022/09/13 11:07:56;;;;;;;;;;;;;;;24.24;55.61;95663.78;10374881;28;97369;-59
2022/09/13 11:13:06;;;;;;;;;;;;;;;24.33;55.32;95664.94;10354391;28;96876;-57
2022/09/13 11:18:29;;;;;;;;;;;;;;;24.61;54.38;95652.44;10332795;28;96874;-58
2022/09/13 11:23:39;;;;;;;;;;;;;;;24.95;53.84;95644.25;10331595;28;97285;-59
2022/09/13 11:28:50;;;;;;;;;;;;;;;25.08;53.85;95649.22;10333264;28;96760;-58
2022/09/13 11:33:58;;;;;;;;;;;;;;;25.10;53.59;95649.75;10333382;28;96764;-58
2022/09/13 11:39:08;;;;;;;;;;;;;;;25.11;53.60;95647.88;10333076;28;96674;-58
2022/09/13 11:44:25;;;;;;;;;;;;;;;25.16;53.61;95651.38;10361277;28;97003;-58
2022/09/13 11:49:42;;;;;;;;;;;;;;;25.24;53.30;95653.59;10376560;28;97435;-59
2022/09/13 11:54:52;;;;;;;;;;;;;;;25.38;52.99;95642.50;10381043;28;96848;-59
2022/09/13 11:59:58;;;;;;;;;;;;;;;25.65;52.66;95657.66;10381009;28;96781;-58
2022/09/13 12:05:04;;;;;;;;;;;;;;;25.85;52.21;95647.09;10380759;28;96714;-58
2022/09/13 12:10:25;;;;;;;;;;;;;;;25.99;51.95;95634.06;10379994;28;96715;-59
2022/09/13 12:15:35;;;;;;;;;;;;;;;26.03;52.06;95635.16;10338155;28;97365;-58
2022/09/13 12:20:39;;;;;;;;;;;;;;;25.91;52.16;95631.88;10339270;28;97069;-58
2022/09/13 12:25:46;;;;;;;;;;;;;;;25.82;52.16;95618.19;10339737;28;96664;-58
2022/09/13 12:30:52;;;;;;;;;;;;;;;25.84;52.16;95626.75;10338443;28;97019;-58
2022/09/13 12:36:05;;;;;;;;;;;;;;;25.94;52.33;95624.13;10338262;28;96748;-58
2022/09/13 12:41:21;;;;;;;;;;;;;;;26.14;51.83;95614.59;10342415;28;97251;-58
2022/09/13 12:46:36;;;;;;;;;;;;;;;26.29;51.15;95609.34;10379108;28;96818;-59
2022/09/13 12:51:50;;;;;;;;;;;;;;;26.47;50.43;95601.88;10379099;28;96883;-58
2022/09/13 12:57:04;;;;;;;;;;;;;;;26.23;50.57;95583.56;10379312;28;97325;-59
2022/09/13 13:02:23;;;;;;;;;;;;;;;25.96;50.82;95589.91;10377769;28;96778;-58
2022/09/13 13:07:27;;;;;;;;;;;;;;;25.84;50.85;95586.63;10378765;28;97493;-58
2022/09/13 13:12:32;;;;;;;;;;;;;;;26.05;50.43;95587.53;10358043;28;96902;-58
2022/09/13 13:17:37;;;;;;;;;;;;;;;26.32;49.70;95576.66;10337537;28;96794;-59
2022/09/13 13:22:50;;;;;;;;;;;;;;;26.63;49.42;95574.06;10336859;28;96624;-59
2022/09/13 13:27:53;;;;;;;;;;;;;;;26.56;49.32;95563.59;10336749;28;96826;-58
2022/09/13 13:33:13;;;;;;;;;;;;;;;26.83;49.02;95564.41;10336153;28;96863;-58
2022/09/13 13:38:16;;;;;;;;;;;;;;;26.96;48.94;95563.94;10336498;28;96816;-58
2022/09/13 13:43:30;;;;;;;;;;;;;;;27.21;48.67;95559.63;10361585;28;97159;-59
2022/09/13 13:48:38;;;;;;;;;;;;;;;27.34;48.62;95553.72;10377862;28;97066;-58
2022/09/13 13:53:42;;;;;;;;;;;;;;;27.49;48.39;95545.63;10377608;28;96699;-59
2022/09/13 13:58:47;;;;;;;;;;;;;;;27.64;48.30;95560.09;10376555;28;97983;-58
2022/09/13 14:03:54;;;;;;;;;;;;;;;27.78;48.42;95558.44;10376732;28;97092;-59
2022/09/13 14:09:11;;;;;;;;;;;;;;;27.93;48.46;95554.91;10377698;28;97025;-58
2022/09/13 14:14:23;;;;;;;;;;;;;;;28.26;47.99;95541.06;10341941;28;97528;-58
2022/09/13 14:19:28;;;;;;;;;;;;;;;28.37;48.13;95537.25;10335372;28;96803;-58
2022/09/13 14:24:36;;;;;;;;;;;;;;;28.46;47.38;95530.22;10334113;28;97580;-59
2022/09/13 14:29:39;;;;;;;;;;;;;;;28.57;47.17;95523.69;10334952;28;96854;-58
2022/09/13 14:34:50;;;;;;;;;;;;;;;28.14;47.02;95518.03;10334875;28;96667;-59
2022/09/13 14:39:56;;;;;;;;;;;;;;;27.80;47.13;95513.34;10334226;28;96903;-59
2022/09/13 14:44:58;;;;;;;;;;;;;;;27.90;47.06;95514.41;10375274;28;96758;-58
2022/09/13 14:50:05;;;;;;;;;;;;;;;27.87;47.26;95507.69;10375200;28;96704;-58
2022/09/13 14:55:12;;;;;;;;;;;;;;;27.80;47.27;95497.25;10375198;28;96906;-58
2022/09/13 15:00:17;;;;;;;;;;;;;;;27.88;47.34;95487.03;10375733;28;96841;-58
2022/09/13 15:05:23;;;;;;;;;;;;;;;28.07;47.07;95487.19;10343747;28;96896;-59
2022/09/13 15:10:27;;;;;;;;;;;;;;;28.44;46.49;95492.09;10353103;28;96763;-59
2022/09/13 15:15:34;;;;;;;;;;;;;;;28.90;45.87;95477.50;10373191;28;97111;-59
2022/09/13 15:20:49;;;;;;;;;;;;;;;28.87;46.06;95473.47;10374671;28;96888;-58
2022/09/13 15:25:53;;;;;;;;;;;;;;;28.75;46.46;95484.59;10373484;28;97842;-59
2022/09/13 15:30:57;;;;;;;;;;;;;;;29.02;45.95;95471.75;10374576;28;96732;-58
2022/09/13 15:36:18;;;;;;;;;;;;;;;28.92;46.16;95462.69;10337915;28;96842;-59
2022/09/13 15:41:23;;;;;;;;;;;;;;;28.72;46.25;95465.53;10332724;28;96698;-58
2022/09/13 15:46:26;;;;;;;;;;;;;;;28.66;46.20;95464.78;10332744;28;96818;-58
2022/09/13 15:51:29;;;;;;;;;;;;;;;28.46;46.47;95471.09;10333245;28;96867;-59
2022/09/13 15:56:36;;;;;;;;;;;;;;;28.01;47.15;95463.06;10332344;28;96834;-59
2022/09/13 16:01:39;;;;;;;;;;;;;;;27.93;47.24;95468.22;10346650;28;97679;-58
2022/09/13 16:06:42;;;;;;;;;;;;;;;27.75;47.28;95464.25;10383340;28;97085;-59
2022/09/13 16:11:46;;;;;;;;;;;;;;;27.56;47.41;95450.63;10372582;28;97019;-58
2022/09/13 16:16:50;;;;;;;;;;;;;;;27.33;47.75;95452.88;10407732;28;96750;-59
2022/09/13 16:21:52;;;;;;;;;;;;;;;27.07;48.19;95452.94;10391866;28;97960;-58
2022/09/13 16:26:59;;;;;;;;;;;;;;;26.87;48.34;95448.41;10371552;28;97064;-59
2022/09/13 16:32:02;;;;;;;;;;;;;;;26.56;48.73;95447.63;10331609;28;96725;-59
2022/09/13 16:37:05;;;;;;;;;;;;;;;26.15;49.36;95443.03;10335896;28;96681;-60
2022/09/13 16:42:09;;;;;;;;;;;;;;;25.91;49.68;95447.25;10339365;28;96903;-58
2022/09/13 16:47:11;;;;;;;;;;;;;;;25.85;49.48;95442.97;10355465;28;98534;-59
2022/09/13 16:52:14;;;;;;;;;;;;;;;25.75;49.51;95446.41;10373128;28;97022;-58
2022/09/13 16:57:18;;;;;;;;;;;;;;;25.62;49.92;95437.00;10367299;28;97742;-59
2022/09/13 17:02:21;;;;;;;;;;;;;;;25.49;49.92;95435.59;10351037;28;97254;-60
2022/09/13 17:07:24;;;;;;;;;;;;;;;25.34;50.04;95433.66;10380327;28;97943;-59
2022/09/13 17:12:28;;;;;;;;;;;;;;;25.25;50.17;95435.22;10388423;28;98545;-58
2022/09/13 17:17:34;;;;;;;;;;;;;;;25.10;50.39;95433.28;10383854;27;97580;-59
2022/09/13 17:22:37;;;;;;;;;;;;;;;25.01;50.58;95429.50;10365146;28;97036;-58
2022/09/13 17:27:41;;;;;;;;;;;;;;;24.88;50.67;95428.88;10364011;28;97166;-58
2022/09/13 17:32:44;;;;;;;;;;;;;;;24.75;50.79;95434.66;10345285;28;96983;-59
2022/09/13 17:37:46;;;;;;;;;;;;;;;24.67;50.91;95425.25;10335808;28;98100;-58
2022/09/13 17:42:50;;;;;;;;;;;;;;;24.52;51.39;95432.34;10337154;28;97186;-58
2022/09/13 17:47:53;;;;;;;;;;;;;;;24.29;51.91;95428.97;10364661;28;97129;-59
2022/09/13 17:52:56;;;;;;;;;;;;;;;24.11;51.81;95416.81;10353878;28;96903;-58
2022/09/13 17:58:00;;;;;;;;;;;;;;;24.02;52.09;95427.09;10371967;28;97857;-58
2022/09/13 18:03:03;;;;;;;;;;;;;;;23.97;52.10;95427.06;10375736;28;99045;-58
2022/09/13 18:08:05;;;;;;;;;;;;;;;23.92;52.31;95419.00;10372909;28;97607;-59
2022/09/13 18:13:09;;;;;;;;;;;;;;;23.73;52.42;95432.66;10372750;28;96892;-58
2022/09/13 18:18:12;;;;;;;;;;;;;;;23.58;52.99;95432.50;10366855;28;96961;-59
2022/09/13 18:23:14;;;;;;;;;;;;;;;23.57;52.74;95438.91;10404242;28;96928;-59
2022/09/13 18:28:18;;;;;;;;;;;;;;;23.49;52.85;95452.66;10363627;28;96891;-58
2022/09/13 18:33:21;;;;;;;;;;;;;;;23.42;53.01;95455.50;10346793;28;96825;-59
2022/09/13 18:38:24;;;;;;;;;;;;;;;23.38;52.97;95457.88;10407314;28;97804;-58
2022/09/13 18:43:28;;;;;;;;;;;;;;;23.37;53.27;95461.56;10386919;28;96888;-58
2022/09/13 18:48:31;;;;;;;;;;;;;;;23.32;53.27;95469.50;10365292;28;98598;-59
2022/09/13 18:53:35;;;;;;;;;;;;;;;23.40;53.51;95470.16;10378176;28;97187;-58
2022/09/13 18:58:39;;;;;;;;;;;;;;;23.42;53.20;95489.34;10365020;28;97349;-58
2022/09/13 19:03:46;;;;;;;;;;;;;;;23.37;53.47;95504.22;10364721;28;97060;-58
2022/09/13 19:08:50;;;;;;;;;;;;;;;23.38;53.15;95505.03;10345630;28;98749;-58
2022/09/13 19:13:54;;;;;;;;;;;;;;;23.40;53.35;95508.25;10375076;28;96857;-58
2022/09/13 19:18:57;;;;;;;;;;;;;;;23.42;53.11;95516.00;10355512;28;97291;-58
2022/09/13 19:24:00;;;;;;;;;;;;;;;23.42;52.96;95508.00;10395519;28;96745;-60
2022/09/13 19:29:13;;;;;;;;;;;;;;;23.37;52.91;95504.22;10414415;28;96695;-59
2022/09/13 19:34:16;;;;;;;;;;;;;;;23.33;53.50;95489.78;10388464;27;96962;-59
2022/09/13 19:39:19;;;;;;;;;;;;;;;23.28;53.01;95495.03;10384378;28;96818;-58
2022/09/13 19:44:23;;;;;;;;;;;;;;;23.22;53.38;95492.53;10395434;28;96800;-58
2022/09/13 19:49:26;;;;;;;;;;;;;;;23.13;53.65;95494.78;10399493;28;96764;-58
2022/09/13 19:54:28;;;;;;;;;;;;;;;23.08;53.71;95498.22;10414638;28;96783;-58
2022/09/13 19:59:33;;;;;;;;;;;;;;;23.02;53.83;95519.69;10375071;28;98480;-59
2022/09/13 20:04:35;;;;;;;;;;;;;;;22.96;54.12;95516.13;10405118;28;98598;-59
2022/09/13 20:09:40;;;;;;;;;;;;;;;22.94;53.80;95520.88;10376145;28;96920;-58
2022/09/13 20:14:44;;;;;;;;;;;;;;;22.91;54.19;95516.88;10379647;28;96747;-59
2022/09/13 20:19:46;;;;;;;;;;;;;;;22.87;54.41;95517.59;10378527;28;96964;-58
2022/09/13 20:24:53;;;;;;;;;;;;;;;22.77;54.55;95505.75;10342625;28;97214;-59
2022/09/13 20:29:56;;;;;;;;;;;;;;;22.68;54.69;95493.06;10337056;28;96779;-58
2022/09/13 20:34:59;;;;;;;;;;;;;;;22.47;55.43;95484.75;10338427;28;96808;-58
2022/09/13 20:40:02;;;;;;;;;;;;;;;22.40;56.01;95478.75;10370287;28;96964;-58
2022/09/13 20:45:07;;;;;;;;;;;;;;;22.27;56.04;95463.91;10378628;28;97840;-58
2022/09/13 20:50:10;;;;;;;;;;;;;;;22.18;56.39;95455.50;10398442;27;96853;-58
2022/09/13 20:55:13;;;;;;;;;;;;;;;22.10;56.70;95466.53;10407910;28;97242;-58
2022/09/13 21:00:18;;;;;;;;;;;;;;;22.00;56.69;95474.34;10336778;28;96850;-58
2022/09/13 21:05:20;;;;;;;;;;;;;;;21.91;56.93;95475.78;10337026;28;96757;-60
2022/09/13 21:10:24;;;;;;;;;;;;;;;21.86;57.24;95463.19;10353022;28;96964;-58
2022/09/13 21:15:28;;;;;;;;;;;;;;;21.73;57.44;95458.13;10355957;28;97153;-59
2022/09/13 21:20:32;;;;;;;;;;;;;;;21.56;57.93;95442.13;10361964;28;97224;-58
2022/09/13 21:25:35;;;;;;;;;;;;;;;21.39;59.23;95431.44;10359051;28;96855;-58
2022/09/13 21:30:39;;;;;;;;;;;;;;;21.26;59.62;95443.13;10358959;28;97107;-58
2022/09/13 21:35:42;;;;;;;;;;;;;;;21.23;59.67;95455.03;10358980;28;96828;-59
2022/09/13 21:40:53;;;;;;;;;;;;;;;21.09;59.92;95459.78;10368875;28;97383;-59
2022/09/13 21:46:02;;;;;;;;;;;;;;;21.09;60.55;95465.09;10373925;28;97218;-58
2022/09/13 21:51:05;;;;;;;;;;;;;;;21.10;60.29;95476.50;10394503;28;96893;-59
2022/09/13 21:56:09;;;;;;;;;;;;;;;21.01;60.56;95472.59;10396181;28;97646;-58
2022/09/13 22:01:14;;;;;;;;;;;;;;;20.92;60.77;95480.09;10380225;28;96832;-60
2022/09/13 22:06:18;;;;;;;;;;;;;;;20.84;61.04;95472.47;10334664;28;97256;-59
2022/09/13 22:11:22;;;;;;;;;;;;;;;20.78;61.10;95490.16;10360735;28;97146;-59
2022/09/13 22:16:27;;;;;;;;;;;;;;;20.78;61.26;95489.34;10375385;28;96658;-59
2022/09/13 22:21:32;;;;;;;;;;;;;;;20.74;61.28;95500.41;10375892;28;97451;-59
2022/09/13 22:26:35;;;;;;;;;;;;;;;20.69;62.07;95500.25;10364095;28;96838;-58
2022/09/13 22:31:40;;;;;;;;;;;;;;;20.67;62.29;95499.69;10351875;28;98000;-59
2022/09/13 22:36:43;;;;;;;;;;;;;;;20.64;62.69;95489.53;10365664;28;96785;-58
2022/09/13 22:41:45;;;;;;;;;;;;;;;20.56;62.95;95497.81;10334358;28;96662;-58
2022/09/13 22:46:49;;;;;;;;;;;;;;;20.51;63.96;95516.25;10334755;28;96705;-58
2022/09/13 22:51:52;;;;;;;;;;;;;;;20.42;64.89;95517.63;10333264;28;97207;-59
2022/09/13 22:56:55;;;;;;;;;;;;;;;20.36;65.58;95514.84;10347450;28;96865;-59
2022/09/13 23:01:58;;;;;;;;;;;;;;;20.19;66.10;95540.41;10375395;28;96784;-59
2022/09/13 23:07:01;;;;;;;;;;;;;;;20.05;67.43;95517.75;10374615;28;96862;-59
2022/09/13 23:12:04;;;;;;;;;;;;;;;19.94;67.55;95517.47;10374968;28;96868;-59
2022/09/13 23:17:08;;;;;;;;;;;;;;;20.03;67.21;95530.44;10389035;28;96816;-59
2022/09/13 23:22:10;;;;;;;;;;;;;;;19.97;67.08;95540.06;10415942;27;97171;-58
2022/09/13 23:27:13;;;;;;;;;;;;;;;19.88;68.25;95542.22;10396749;28;97048;-59
2022/09/13 23:32:17;;;;;;;;;;;;;;;19.79;69.06;95531.09;10373999;28;96800;-58
2022/09/13 23:37:19;;;;;;;;;;;;;;;19.73;69.70;95509.97;10373658;28;96690;-58
2022/09/13 23:42:22;;;;;;;;;;;;;;;19.78;69.06;95505.63;10373236;28;96800;-58
2022/09/13 23:47:26;;;;;;;;;;;;;;;19.79;69.00;95509.09;10381254;28;96973;-58
2022/09/13 23:52:29;;;;;;;;;;;;;;;19.67;69.72;95500.28;10381419;28;97171;-59
2022/09/13 23:57:31;;;;;;;;;;;;;;;19.67;69.79;95495.78;10360258;28;96976;-58
